createdAt,value
2024-02-26T00:00:28.280Z,100768.94
2024-02-26T00:02:55.518Z,100766.91
2024-02-26T00:05:22.809Z,100759.28
2024-02-26T00:07:50.470Z,100756.06
2024-02-26T00:10:20.705Z,100750.41
2024-02-26T00:12:51.164Z,100750.56
2024-02-26T00:15:19.081Z,100749.03
2024-02-26T00:17:46.550Z,100755.09
2024-02-26T00:20:15.384Z,100748.03
2024-02-26T00:22:43.201Z,100722.91
2024-02-26T00:25:10.634Z,100733.16
2024-02-26T00:27:38.234Z,100720.63
2024-02-26T00:30:08.679Z,100728.66
2024-02-26T00:32:36.547Z,100714.16
2024-02-26T00:35:03.961Z,100712.38
2024-02-26T00:37:31.534Z,100711.41
2024-02-26T00:39:59.100Z,100701.22
2024-02-26T00:42:26.850Z,100699.63
2024-02-26T00:44:54.143Z,100703.19
2024-02-26T00:47:21.718Z,100698.09
2024-02-26T00:49:49.281Z,100697.97
2024-02-26T00:52:16.733Z,100691.09
2024-02-26T00:54:43.730Z,100680.03
2024-02-26T00:57:11.405Z,100680.91
2024-02-26T00:59:38.785Z,100679.22
2024-02-26T01:02:08.192Z,100675.06
2024-02-26T01:04:35.620Z,100675.91
2024-02-26T01:07:03.079Z,100674.31
2024-02-26T01:09:30.313Z,100670.28
2024-02-26T01:11:57.588Z,100655.94
2024-02-26T01:14:24.995Z,100652.53
2024-02-26T01:16:52.044Z,100651.13
2024-02-26T01:19:19.270Z,100647.81
2024-02-26T01:21:46.732Z,100646.16
2024-02-26T01:24:13.997Z,100641.91
2024-02-26T01:26:41.394Z,100634.16
2024-02-26T01:29:08.615Z,100625.53
2024-02-26T01:31:35.946Z,100628.22
2024-02-26T01:34:03.598Z,100626.53
2024-02-26T01:36:30.812Z,100630.00
2024-02-26T01:38:57.973Z,100625.78
2024-02-26T01:41:25.172Z,100630.03
2024-02-26T01:43:52.701Z,100628.34
2024-02-26T01:46:20.085Z,100622.28
2024-02-26T01:48:49.120Z,100620.59
2024-02-26T01:51:17.511Z,100613.75
2024-02-26T01:53:45.051Z,100612.00
2024-02-26T01:56:13.616Z,100612.91
2024-02-26T01:58:41.019Z,100614.63
2024-02-26T02:01:09.115Z,100617.09
2024-02-26T02:03:37.277Z,100615.25
2024-02-26T02:06:06.880Z,100620.34
2024-02-26T02:08:36.474Z,100609.03
2024-02-26T02:11:04.155Z,100608.81
2024-02-26T02:13:31.648Z,100606.13
2024-02-26T02:15:58.891Z,100613.00
2024-02-26T02:18:26.201Z,100610.38
2024-02-26T02:20:55.083Z,100610.38
2024-02-26T02:23:22.237Z,100597.56
2024-02-26T02:25:49.330Z,100606.13
2024-02-26T02:28:16.906Z,100599.41
2024-02-26T02:30:44.198Z,100595.09
2024-02-26T02:33:13.121Z,100603.09
2024-02-26T02:35:40.346Z,100601.47
2024-02-26T02:38:08.053Z,100598.22
2024-02-26T02:40:36.032Z,100587.19
2024-02-26T02:43:03.360Z,100586.25
2024-02-26T02:45:30.591Z,100586.22
2024-02-26T02:47:57.926Z,100571.72
2024-02-26T02:50:25.126Z,100577.69
2024-02-26T02:52:52.461Z,100579.19
2024-02-26T02:55:20.058Z,100576.53
2024-02-26T02:57:47.234Z,100572.25
2024-02-26T03:00:14.649Z,100576.53
2024-02-26T03:02:41.908Z,100569.69
2024-02-26T03:05:09.715Z,100571.63
2024-02-26T03:07:36.873Z,100574.16
2024-02-26T03:10:04.492Z,100563.88
2024-02-26T03:12:32.161Z,100555.22
2024-02-26T03:14:59.381Z,100555.28
2024-02-26T03:17:26.552Z,100548.19
2024-02-26T03:19:55.473Z,100548.13
2024-02-26T03:22:22.888Z,100536.84
2024-02-26T03:24:50.140Z,100529.03
2024-02-26T03:27:17.434Z,100524.75
2024-02-26T03:29:44.917Z,100523.75
2024-02-26T03:32:12.035Z,100514.41
2024-02-26T03:34:41.223Z,100513.75
2024-02-26T03:37:10.652Z,100527.50
2024-02-26T03:39:38.711Z,100521.81
2024-02-26T03:42:06.167Z,100517.91
2024-02-26T03:44:33.627Z,100515.34
2024-02-26T03:47:01.115Z,100512.75
2024-02-26T03:49:28.553Z,100505.94
2024-02-26T03:51:55.803Z,100491.41
2024-02-26T03:54:23.560Z,100494.91
2024-02-26T03:56:50.679Z,100495.66
2024-02-26T03:59:18.217Z,100500.06
2024-02-26T04:01:51.381Z,100496.59
2024-02-26T04:04:18.497Z,100492.25
2024-02-26T04:06:47.766Z,100499.97
2024-02-26T04:09:16.062Z,100489.63
2024-02-26T04:11:44.846Z,100498.84
2024-02-26T04:14:14.018Z,100488.50
2024-02-26T04:16:41.185Z,100492.75
2024-02-26T04:19:08.490Z,100493.41
2024-02-26T04:21:36.390Z,100493.25
2024-02-26T04:24:03.899Z,100494.84
2024-02-26T04:26:32.137Z,100487.91
2024-02-26T04:28:59.300Z,100488.06
2024-02-26T04:31:27.532Z,100495.88
2024-02-26T04:33:54.931Z,100495.28
2024-02-26T04:36:23.548Z,100493.50
2024-02-26T04:38:50.872Z,100497.94
2024-02-26T04:41:18.108Z,100497.13
2024-02-26T04:43:45.428Z,100497.28
2024-02-26T04:46:12.859Z,100498.09
2024-02-26T04:48:40.581Z,100494.59
2024-02-26T04:51:08.199Z,100498.78
2024-02-26T04:53:35.409Z,100508.22
2024-02-26T04:56:02.832Z,100504.94
2024-02-26T04:58:30.336Z,100496.47
2024-02-26T05:00:57.515Z,100498.88
2024-02-26T05:03:24.658Z,100505.88
2024-02-26T05:05:52.054Z,100499.13
2024-02-26T05:08:19.144Z,100493.25
2024-02-26T05:10:49.359Z,100501.91
2024-02-26T05:13:19.152Z,100498.63
2024-02-26T05:15:48.240Z,100480.22
2024-02-26T05:18:15.354Z,100483.78
2024-02-26T05:20:42.751Z,100486.56
2024-02-26T05:23:10.985Z,100481.88
2024-02-26T05:25:38.163Z,100477.16
2024-02-26T05:28:05.680Z,100475.03
2024-02-26T05:30:32.976Z,100467.66
2024-02-26T05:33:00.252Z,100459.22
2024-02-26T05:35:27.437Z,100468.88
2024-02-26T05:37:55.203Z,100456.06
2024-02-26T05:40:22.609Z,100466.47
2024-02-26T05:42:50.397Z,100453.50
2024-02-26T05:45:18.103Z,100466.28
2024-02-26T05:47:45.474Z,100473.09
2024-02-26T05:50:12.909Z,100477.28
2024-02-26T05:52:40.198Z,100469.56
2024-02-26T05:55:08.339Z,100472.97
2024-02-26T05:57:35.975Z,100464.31
2024-02-26T06:00:05.477Z,100468.63
2024-02-26T06:02:41.729Z,100473.72
2024-02-26T06:05:10.329Z,100477.06
2024-02-26T06:07:37.968Z,100466.53
2024-02-26T06:10:06.162Z,100467.47
2024-02-26T06:12:36.948Z,100476.75
2024-02-26T06:15:05.701Z,100475.81
2024-02-26T06:17:32.965Z,100465.53
2024-02-26T06:20:03.229Z,100473.19
2024-02-26T06:22:31.083Z,100469.72
2024-02-26T06:24:58.370Z,100478.22
2024-02-26T06:27:25.852Z,100479.72
2024-02-26T06:29:54.996Z,100491.69
2024-02-26T06:32:24.405Z,100470.22
2024-02-26T06:34:51.807Z,100475.47
2024-02-26T06:37:19.010Z,100480.50
2024-02-26T06:39:47.386Z,100476.16
2024-02-26T06:42:14.774Z,100476.16
2024-02-26T06:44:42.370Z,100471.19
2024-02-26T06:47:12.863Z,100455.81
2024-02-26T06:49:40.386Z,100468.59
2024-02-26T06:52:07.701Z,100460.84
2024-02-26T06:54:35.067Z,100471.13
2024-02-26T06:57:02.315Z,100457.53
2024-02-26T06:59:58.524Z,100461.00
2024-02-26T07:02:26.297Z,100436.03
2024-02-26T07:04:53.661Z,100444.72
2024-02-26T07:07:20.886Z,100450.00
2024-02-26T07:09:49.371Z,100436.38
2024-02-26T07:12:17.519Z,100435.63
2024-02-26T07:14:44.724Z,100435.81
2024-02-26T07:17:11.952Z,100424.66
2024-02-26T07:19:39.197Z,100415.38
2024-02-26T07:22:09.347Z,100411.06
2024-02-26T07:24:36.595Z,100428.38
2024-02-26T07:27:04.180Z,100420.75
2024-02-26T07:29:31.548Z,100433.59
2024-02-26T07:31:59.514Z,100421.03
2024-02-26T07:34:30.948Z,100418.47
2024-02-26T07:36:58.553Z,100409.22
2024-02-26T07:39:25.644Z,100424.66
2024-02-26T07:41:54.727Z,100415.25
2024-02-26T07:44:22.167Z,100418.78
2024-02-26T07:46:49.498Z,100418.00
2024-02-26T07:49:16.941Z,100413.78
2024-02-26T07:51:44.408Z,100403.63
2024-02-26T07:54:11.675Z,100386.59
2024-02-26T07:56:39.110Z,100401.25
2024-02-26T07:59:06.156Z,100404.72
2024-02-26T08:01:33.493Z,100407.41
2024-02-26T08:04:00.874Z,100414.44
2024-02-26T08:06:28.766Z,100406.66
2024-02-26T08:08:56.052Z,100410.06
2024-02-26T08:11:23.579Z,100410.78
2024-02-26T08:13:51.224Z,100411.66
2024-02-26T08:16:20.832Z,100405.69
2024-02-26T08:18:48.157Z,100392.84
2024-02-26T08:21:15.425Z,100386.22
2024-02-26T08:23:45.212Z,100378.53
2024-02-26T08:26:13.184Z,100379.34
2024-02-26T08:28:40.525Z,100371.63
2024-02-26T08:31:08.152Z,100371.75
2024-02-26T08:33:36.874Z,100362.47
2024-02-26T08:36:08.018Z,100352.31
2024-02-26T08:38:37.359Z,100354.94
2024-02-26T08:41:05.582Z,100331.16
2024-02-26T08:43:32.812Z,100339.72
2024-02-26T08:45:59.974Z,100342.38
2024-02-26T08:48:27.484Z,100343.28
2024-02-26T08:50:54.676Z,100334.81
2024-02-26T08:53:27.816Z,100346.78
2024-02-26T08:55:59.246Z,100319.59
2024-02-26T08:58:26.413Z,100318.84
2024-02-26T09:00:54.043Z,100318.84
2024-02-26T09:03:21.540Z,100306.97
2024-02-26T09:05:49.442Z,100319.09
2024-02-26T09:08:16.930Z,100305.53
2024-02-26T09:10:44.329Z,100301.34
2024-02-26T09:13:11.494Z,100317.63
2024-02-26T09:15:38.841Z,100304.84
2024-02-26T09:18:06.465Z,100295.47
2024-02-26T09:20:33.735Z,100287.00
2024-02-26T09:23:03.958Z,100291.31
2024-02-26T09:25:31.299Z,100285.41
2024-02-26T09:27:58.430Z,100290.47
2024-02-26T09:30:25.928Z,100286.25
2024-02-26T09:32:53.173Z,100291.44
2024-02-26T09:35:20.533Z,100289.69
2024-02-26T09:37:47.828Z,100293.91
2024-02-26T09:40:14.887Z,100298.19
2024-02-26T09:42:47.894Z,100296.59
2024-02-26T09:45:23.225Z,100299.13
2024-02-26T09:47:51.501Z,100302.50
2024-02-26T09:50:24.052Z,100298.19
2024-02-26T09:52:54.453Z,100307.53
2024-02-26T09:55:21.968Z,100286.16
2024-02-26T09:57:52.848Z,100286.09
2024-02-26T10:00:20.762Z,100306.72
2024-02-26T10:02:49.268Z,100293.84
2024-02-26T10:05:22.602Z,100306.63
2024-02-26T10:07:50.560Z,100312.56
2024-02-26T10:10:19.061Z,100310.94
2024-02-26T10:12:46.476Z,100310.06
2024-02-26T10:15:14.820Z,100317.72
2024-02-26T10:17:42.832Z,100309.13
2024-02-26T10:20:16.411Z,100324.50
2024-02-26T10:22:43.954Z,100320.28
2024-02-26T10:25:14.118Z,100332.16
2024-02-26T10:27:44.727Z,100324.56
2024-02-26T10:30:22.990Z,100328.72
2024-02-26T10:32:51.742Z,100334.66
2024-02-26T10:35:22.333Z,100332.06
2024-02-26T10:37:53.872Z,100330.22
2024-02-26T10:40:21.201Z,100304.44
2024-02-26T10:42:48.613Z,100312.13
2024-02-26T10:45:16.161Z,100297.53
2024-02-26T10:47:44.042Z,100315.44
2024-02-26T10:50:14.593Z,100298.44
2024-02-26T10:52:43.706Z,100295.06
2024-02-26T10:55:21.866Z,100307.06
2024-02-26T10:57:53.863Z,100291.56
2024-02-26T11:00:21.195Z,100298.56
2024-02-26T11:02:49.675Z,100297.75
2024-02-26T11:05:18.572Z,100302.88
2024-02-26T11:07:48.323Z,100296.81
2024-02-26T11:10:18.666Z,100282.38
2024-02-26T11:12:47.563Z,100273.78
2024-02-26T11:15:15.477Z,100272.13
2024-02-26T11:17:44.354Z,100272.13
2024-02-26T11:20:14.142Z,100267.06
2024-02-26T11:22:42.189Z,100251.63
2024-02-26T11:25:10.205Z,100242.25
2024-02-26T11:27:45.250Z,100219.25
2024-02-26T11:30:15.457Z,100228.00
2024-02-26T11:32:47.110Z,100221.22
2024-02-26T11:35:16.651Z,100207.56
2024-02-26T11:37:56.005Z,100213.59
2024-02-26T11:40:27.234Z,100214.47
2024-02-26T11:42:55.540Z,100220.41
2024-02-26T11:45:41.280Z,100216.13
2024-02-26T11:48:15.870Z,100197.31
2024-02-26T11:50:45.030Z,100202.47
2024-02-26T11:53:27.098Z,100203.38
2024-02-26T11:56:31.823Z,100194.97
2024-02-26T11:59:08.335Z,100205.25
2024-02-26T12:01:40.252Z,100210.34
2024-02-26T12:04:12.955Z,100185.63
2024-02-26T12:06:57.797Z,100189.19
2024-02-26T12:09:43.230Z,100178.28
2024-02-26T12:12:15.143Z,100173.25
2024-02-26T12:14:57.135Z,100175.88
2024-02-26T12:17:25.876Z,100156.22
2024-02-26T12:19:54.947Z,100161.44
2024-02-26T12:22:22.249Z,100157.19
2024-02-26T12:24:59.617Z,100156.34
2024-02-26T12:27:27.340Z,100158.13
2024-02-26T12:29:55.300Z,100153.88
2024-02-26T12:32:22.532Z,100157.28
2024-02-26T12:34:50.831Z,100151.38
2024-02-26T12:37:18.304Z,100153.09
2024-02-26T12:39:47.186Z,100130.03
2024-02-26T12:42:16.206Z,100138.69
2024-02-26T12:44:43.461Z,100139.53
2024-02-26T12:47:11.879Z,100113.09
2024-02-26T12:49:39.477Z,100124.25
2024-02-26T12:52:08.417Z,100140.47
2024-02-26T12:54:36.116Z,100131.94
2024-02-26T12:57:07.194Z,100137.06
2024-02-26T12:59:36.823Z,100128.53
2024-02-26T13:02:07.963Z,100137.94
2024-02-26T13:04:36.694Z,100140.56
2024-02-26T13:07:07.338Z,100158.53
2024-02-26T13:09:38.807Z,100155.13
2024-02-26T13:12:07.607Z,100147.38
2024-02-26T13:14:35.345Z,100141.41
2024-02-26T13:17:03.580Z,100144.81
2024-02-26T13:19:31.122Z,100146.53
2024-02-26T13:22:08.329Z,100158.56
2024-02-26T13:24:36.931Z,100147.41
2024-02-26T13:27:06.507Z,100132.88
2024-02-26T13:29:34.098Z,100136.28
2024-02-26T13:32:01.903Z,100141.44
2024-02-26T13:34:32.069Z,100145.72
2024-02-26T13:36:59.789Z,100132.88
2024-02-26T13:39:28.986Z,100155.06
2024-02-26T13:41:56.498Z,100152.56
2024-02-26T13:44:25.473Z,100135.44
2024-02-26T13:46:53.255Z,100124.28
2024-02-26T13:49:20.709Z,100118.31
2024-02-26T13:51:47.975Z,100138.03
2024-02-26T13:54:16.378Z,100126.09
2024-02-26T13:56:45.795Z,100122.66
2024-02-26T13:59:14.533Z,100124.38
2024-02-26T14:01:41.926Z,100132.06
2024-02-26T14:04:10.717Z,100114.09
2024-02-26T14:06:38.741Z,100122.66
2024-02-26T14:09:06.257Z,100126.09
2024-02-26T14:11:34.923Z,100109.88
2024-02-26T14:14:02.448Z,100124.44
2024-02-26T14:16:32.481Z,100124.44
2024-02-26T14:19:00.734Z,100116.75
2024-02-26T14:21:28.776Z,100109.00
2024-02-26T14:23:56.919Z,100111.56
2024-02-26T14:26:24.870Z,100122.72
2024-02-26T14:28:52.283Z,100139.84
2024-02-26T14:31:20.031Z,100125.31
2024-02-26T14:33:48.072Z,100133.06
2024-02-26T14:36:16.238Z,100124.50
2024-02-26T14:38:43.469Z,100123.63
2024-02-26T14:41:11.669Z,100129.63
2024-02-26T14:43:40.130Z,100115.94
2024-02-26T14:46:07.360Z,100124.47
2024-02-26T14:48:34.644Z,100123.59
2024-02-26T14:51:02.254Z,100132.19
2024-02-26T14:53:29.920Z,100126.19
2024-02-26T14:55:57.281Z,100122.75
2024-02-26T14:58:24.577Z,100132.97
2024-02-26T15:00:52.871Z,100124.50
2024-02-26T15:03:20.450Z,100115.94
2024-02-26T15:05:48.026Z,100120.25
2024-02-26T15:08:17.680Z,100127.09
2024-02-26T15:10:49.396Z,100126.22
2024-02-26T15:13:17.169Z,100135.69
2024-02-26T15:15:44.665Z,100135.69
2024-02-26T15:18:16.967Z,100144.25
2024-02-26T15:20:45.148Z,100141.66
2024-02-26T15:23:13.152Z,100139.03
2024-02-26T15:25:42.565Z,100141.63
2024-02-26T15:28:11.511Z,100132.25
2024-02-26T15:30:38.692Z,100127.97
2024-02-26T15:33:06.197Z,100145.09
2024-02-26T15:35:33.598Z,100145.06
2024-02-26T15:38:00.841Z,100135.66
2024-02-26T15:40:28.331Z,100134.78
2024-02-26T15:42:55.657Z,100136.50
2024-02-26T15:45:23.038Z,100132.22
2024-02-26T15:47:50.630Z,100133.94
2024-02-26T15:50:18.165Z,100134.75
2024-02-26T15:52:45.575Z,100129.63
2024-02-26T15:55:17.065Z,100136.47
2024-02-26T15:57:46.073Z,100140.69
2024-02-26T16:00:17.096Z,100129.59
2024-02-26T16:02:44.885Z,100131.28
2024-02-26T16:05:14.168Z,100121.91
2024-02-26T16:07:53.177Z,100122.72
2024-02-26T16:10:21.058Z,100121.91
2024-02-26T16:12:53.632Z,100114.13
2024-02-26T16:15:24.330Z,100109.88
2024-02-26T16:17:53.728Z,100111.63
2024-02-26T16:20:22.638Z,100105.59
2024-02-26T16:22:50.255Z,100096.19
2024-02-26T16:25:19.821Z,100103.03
2024-02-26T16:27:48.143Z,100100.47
2024-02-26T16:30:15.538Z,100115.03
2024-02-26T16:32:45.813Z,100121.88
2024-02-26T16:35:13.372Z,100132.97
2024-02-26T16:37:40.984Z,100133.81
2024-02-26T16:40:12.746Z,100124.44
2024-02-26T16:42:40.203Z,100133.03
2024-02-26T16:45:07.973Z,100128.75
2024-02-26T16:47:37.794Z,100136.50
2024-02-26T16:50:07.410Z,100127.94
2024-02-26T16:52:35.011Z,100137.41
2024-02-26T16:55:05.291Z,100128.81
2024-02-26T16:57:33.917Z,100138.22
2024-02-26T17:00:01.304Z,100139.91
2024-02-26T17:02:29.587Z,100135.66
2024-02-26T17:04:56.946Z,100134.00
2024-02-26T17:07:26.266Z,100127.97
2024-02-26T17:09:56.377Z,100130.56
2024-02-26T17:12:23.718Z,100126.28
2024-02-26T17:14:52.290Z,100127.97
2024-02-26T17:17:20.194Z,100130.56
2024-02-26T17:19:47.706Z,100129.69
2024-02-26T17:22:15.392Z,100130.56
2024-02-26T17:24:42.930Z,100125.38
2024-02-26T17:27:10.197Z,100122.84
2024-02-26T17:29:38.353Z,100128.84
2024-02-26T17:32:09.587Z,100124.56
2024-02-26T17:34:39.644Z,100121.16
2024-02-26T17:37:07.437Z,100113.41
2024-02-26T17:39:35.065Z,100115.09
2024-02-26T17:42:02.629Z,100115.91
2024-02-26T17:44:41.282Z,100116.78
2024-02-26T17:47:09.716Z,100103.09
2024-02-26T17:49:37.043Z,100113.38
2024-02-26T17:52:04.620Z,100115.03
2024-02-26T17:54:31.897Z,100121.06
2024-02-26T17:57:00.500Z,100111.69
2024-02-26T17:59:30.031Z,100115.13
2024-02-26T18:01:57.418Z,100114.28
2024-02-26T18:04:25.374Z,100113.41
2024-02-26T18:06:53.192Z,100136.47
2024-02-26T18:09:20.627Z,100133.03
2024-02-26T18:11:48.360Z,100139.06
2024-02-26T18:14:17.262Z,100136.53
2024-02-26T18:16:44.932Z,100138.16
2024-02-26T18:19:12.326Z,100144.06
2024-02-26T18:21:39.730Z,100136.28
2024-02-26T18:24:07.632Z,100149.91
2024-02-26T18:26:35.499Z,100154.16
2024-02-26T18:29:03.260Z,100158.38
2024-02-26T18:31:30.839Z,100161.69
2024-02-26T18:33:58.596Z,100173.59
2024-02-26T18:36:26.391Z,100164.94
2024-02-26T18:38:54.164Z,100178.56
2024-02-26T18:41:23.373Z,100181.84
2024-02-26T18:43:52.676Z,100179.22
2024-02-26T18:46:20.709Z,100185.22
2024-02-26T18:48:49.831Z,100182.44
2024-02-26T18:51:17.784Z,100183.25
2024-02-26T18:53:46.545Z,100176.44
2024-02-26T18:56:15.719Z,100176.41
2024-02-26T18:58:44.461Z,100174.69
2024-02-26T19:01:12.599Z,100165.19
2024-02-26T19:03:40.325Z,100166.81
2024-02-26T19:06:10.531Z,100166.91
2024-02-26T19:08:41.980Z,100163.56
2024-02-26T19:11:09.935Z,100166.94
2024-02-26T19:13:40.253Z,100169.47
2024-02-26T19:16:08.172Z,100158.25
2024-02-26T19:18:35.653Z,100167.69
2024-02-26T19:21:04.235Z,100165.19
2024-02-26T19:23:38.170Z,100169.47
2024-02-26T19:26:08.277Z,100153.97
2024-02-26T19:28:35.767Z,100171.13
2024-02-26T19:31:03.174Z,100173.63
2024-02-26T19:33:33.516Z,100171.81
2024-02-26T19:36:01.621Z,100170.03
2024-02-26T19:38:29.406Z,100179.34
2024-02-26T19:40:57.635Z,100178.44
2024-02-26T19:43:25.318Z,100166.44
2024-02-26T19:45:52.958Z,100170.56
2024-02-26T19:48:20.721Z,100174.00
2024-02-26T19:50:49.065Z,100171.44
2024-02-26T19:53:19.529Z,100168.09
2024-02-26T19:55:50.531Z,100178.38
2024-02-26T19:58:20.815Z,100182.59
2024-02-26T20:00:49.679Z,100190.28
2024-02-26T20:03:19.742Z,100197.06
2024-02-26T20:05:47.724Z,100188.44
2024-02-26T20:08:18.556Z,100197.00
2024-02-26T20:10:51.607Z,100176.25
2024-02-26T20:13:23.429Z,100186.53
2024-02-26T20:15:50.779Z,100189.88
2024-02-26T20:18:18.592Z,100198.50
2024-02-26T20:20:45.838Z,100201.06
2024-02-26T20:23:16.496Z,100198.69
2024-02-26T20:25:44.651Z,100195.38
2024-02-26T20:28:12.790Z,100202.03
2024-02-26T20:30:40.361Z,100204.63
2024-02-26T20:33:07.844Z,100212.44
2024-02-26T20:35:36.315Z,100211.41
2024-02-26T20:38:04.031Z,100226.75
2024-02-26T20:40:33.512Z,100218.13
2024-02-26T20:43:00.955Z,100229.19
2024-02-26T20:45:29.605Z,100227.41
2024-02-26T20:48:00.579Z,100230.63
2024-02-26T20:50:28.340Z,100241.53
2024-02-26T20:52:55.946Z,100244.09
2024-02-26T20:55:23.212Z,100228.69
2024-02-26T20:57:50.803Z,100241.56
2024-02-26T21:00:18.647Z,100229.50
2024-02-26T21:02:46.139Z,100229.44
2024-02-26T21:05:14.434Z,100206.25
2024-02-26T21:07:43.220Z,100222.59
2024-02-26T21:10:11.307Z,100215.00
2024-02-26T21:12:39.510Z,100210.84
2024-02-26T21:15:07.488Z,100203.28
2024-02-26T21:17:35.229Z,100206.72
2024-02-26T21:20:02.814Z,100196.53
2024-02-26T21:22:31.276Z,100205.19
2024-02-26T21:24:58.821Z,100205.25
2024-02-26T21:27:26.997Z,100197.50
2024-02-26T21:29:54.476Z,100189.84
2024-02-26T21:32:24.077Z,100195.06
2024-02-26T21:34:51.368Z,100187.41
2024-02-26T21:37:18.887Z,100191.66
2024-02-26T21:39:46.023Z,100185.72
2024-02-26T21:42:13.580Z,100176.16
2024-02-26T21:44:41.145Z,100163.19
2024-02-26T21:47:08.787Z,100159.72
2024-02-26T21:49:36.771Z,100154.59
2024-02-26T21:52:07.547Z,100165.78
2024-02-26T21:54:36.120Z,100142.78
2024-02-26T21:57:04.787Z,100133.34
2024-02-26T21:59:32.420Z,100130.00
2024-02-26T22:02:00.137Z,100118.94
2024-02-26T22:04:27.814Z,100113.88
2024-02-26T22:06:55.591Z,100101.19
2024-02-26T22:09:23.484Z,100093.53
2024-02-26T22:11:54.131Z,100079.94
2024-02-26T22:14:23.501Z,100059.44
2024-02-26T22:16:53.704Z,100033.72
2024-02-26T22:19:21.530Z,100020.19
2024-02-26T22:21:49.287Z,100005.66
2024-02-26T22:24:16.831Z,99998.75
2024-02-26T22:26:45.655Z,100004.78
2024-02-26T22:29:13.368Z,100011.75
2024-02-26T22:31:43.998Z,100021.22
2024-02-26T22:34:11.856Z,100000.69
2024-02-26T22:36:39.691Z,100001.41
2024-02-26T22:39:08.850Z,100018.38
2024-02-26T22:41:43.195Z,100040.50
2024-02-26T22:44:15.387Z,100056.75
2024-02-26T22:46:43.834Z,100047.22
2024-02-26T22:49:11.998Z,100023.31
2024-02-26T22:51:40.159Z,100023.41
2024-02-26T22:54:08.252Z,100034.63
2024-02-26T22:56:35.811Z,100059.19
2024-02-26T22:59:06.470Z,100048.78
2024-02-26T23:01:34.566Z,100052.00
2024-02-26T23:04:02.375Z,100026.41
2024-02-26T23:06:30.462Z,100001.25
2024-02-26T23:08:58.289Z,100020.88
2024-02-26T23:11:25.730Z,100052.75
2024-02-26T23:13:53.930Z,100067.47
2024-02-26T23:16:21.328Z,100057.88
2024-02-26T23:18:50.520Z,100042.50
2024-02-26T23:21:19.665Z,100042.50
2024-02-26T23:24:02.679Z,100064.78
2024-02-26T23:26:29.766Z,100044.28
2024-02-26T23:28:57.306Z,100032.19
2024-02-26T23:31:24.886Z,99999.66
2024-02-26T23:33:54.456Z,100007.34
2024-02-26T23:36:21.914Z,99991.25
2024-02-26T23:38:49.644Z,100005.03
2024-02-26T23:41:17.373Z,100018.03
2024-02-26T23:43:44.683Z,100021.28
2024-02-26T23:46:11.964Z,100028.97
2024-02-26T23:48:39.167Z,100065.88
2024-02-26T23:51:06.512Z,100075.22
2024-02-26T23:53:33.908Z,100052.66
2024-02-26T23:56:01.634Z,100026.00
2024-02-26T23:58:29.031Z,100045.56
